Time;durP1;ratioP1;P1;durP2;ratioP2;P2;SDS_P1;SDS_P2;PMS_P1;PMS_P2;Temp;Humidity;BMP_temperature;BMP_pressure;BME280_temperature;BME280_humidity;BME280_pressure;Samples;Min_cycle;Max_cycle;Signal;HPM_P1;HPM_P2
2023/08/04 00:00:48;;;;;;;10.80;6.50;;;;;;;29.20;45.84;99668.60;108121;1257;73826;-69
2023/08/04 00:03:16;;;;;;;14.00;7.20;;;;;;;29.27;45.70;99670.40;108003;1252;60384;-70
2023/08/04 00:05:44;;;;;;;11.80;6.90;;;;;;;29.35;45.74;99672.17;108054;1254;60345;-72
2023/08/04 00:08:11;;;;;;;8.60;6.60;;;;;;;29.27;45.72;99669.14;108061;1254;72980;-70
2023/08/04 00:10:39;;;;;;;11.90;7.40;;;;;;;28.84;46.65;99668.45;108083;1257;68918;-71
2023/08/04 00:13:06;;;;;;;11.70;7.00;;;;;;;28.77;47.00;99668.73;108057;1257;72010;-70
2023/08/04 00:15:34;;;;;;;8.70;7.30;;;;;;;28.69;47.09;99673.11;108123;1253;60733;-68
2023/08/04 00:18:03;;;;;;;8.70;6.50;;;;;;;28.79;47.02;99669.59;108235;1252;59493;-70
2023/08/04 00:20:30;;;;;;;7.40;6.60;;;;;;;28.55;47.51;99673.28;108077;1252;73039;-70
2023/08/04 00:22:58;;;;;;;11.20;7.10;;;;;;;28.70;47.05;99674.20;108151;1254;69928;-69
2023/08/04 00:25:25;;;;;;;9.00;6.70;;;;;;;28.89;47.06;99675.41;108033;1258;72715;-68
2023/08/04 00:27:53;;;;;;;12.90;6.20;;;;;;;28.93;46.73;99675.94;108089;1254;59630;-70
2023/08/04 00:30:20;;;;;;;9.80;6.80;;;;;;;28.84;46.75;99673.51;108051;1254;58716;-69
2023/08/04 00:32:47;;;;;;;9.10;6.70;;;;;;;28.73;46.96;99678.92;108008;1253;73036;-70
2023/08/04 00:35:15;;;;;;;11.50;7.00;;;;;;;28.72;46.91;99677.45;108067;1254;69198;-70
2023/08/04 00:37:43;;;;;;;9.80;6.90;;;;;;;28.55;47.44;99679.65;107998;1254;72696;-71
2023/08/04 00:40:11;;;;;;;9.90;7.30;;;;;;;28.57;47.29;99683.02;108053;1254;60387;-70
2023/08/04 00:42:38;;;;;;;9.40;7.30;;;;;;;28.75;46.93;99680.73;108040;1254;59991;-70
2023/08/04 00:45:07;;;;;;;10.70;7.00;;;;;;;28.89;46.47;99680.23;108064;1254;73097;-69
2023/08/04 00:47:37;;;;;;;10.00;7.20;;;;;;;28.77;46.81;99680.39;107959;1254;70208;-70
2023/08/04 00:50:06;;;;;;;11.60;7.70;;;;;;;28.66;47.03;99682.54;108038;1253;72697;-70
2023/08/04 00:52:34;;;;;;;9.10;7.40;;;;;;;28.42;47.52;99676.50;108085;1252;61087;-70
2023/08/04 00:55:02;;;;;;;12.60;7.50;;;;;;;28.46;47.47;99677.80;107863;1253;59612;-70
2023/08/04 00:57:29;;;;;;;10.40;7.30;;;;;;;28.54;47.46;99677.20;107980;1253;72042;-70
2023/08/04 00:59:57;;;;;;;11.40;7.90;;;;;;;28.63;47.27;99675.27;108084;1254;68798;-71
2023/08/04 01:02:24;;;;;;;8.40;6.60;;;;;;;28.60;47.29;99673.48;108089;1252;72677;-72
2023/08/04 01:04:52;;;;;;;11.50;7.50;;;;;;;28.66;47.19;99667.65;108152;1254;60373;-68
2023/08/04 01:07:23;;;;;;;11.90;7.20;;;;;;;28.71;46.82;99672.14;108130;1254;59526;-68
2023/08/04 01:10:02;;;;;;;12.40;7.60;;;;;;;28.63;47.10;99675.27;107988;1253;71768;-69
2023/08/04 01:12:57;;;;;;;16.90;7.80;;;;;;;28.72;46.91;99669.46;108100;1254;70691;-69
2023/08/04 01:15:24;;;;;;;8.30;6.90;;;;;;;28.72;46.86;99673.83;107997;1252;72504;-70
2023/08/04 01:17:53;;;;;;;10.10;6.20;;;;;;;28.52;47.32;99673.15;107981;1254;61675;-70
2023/08/04 01:20:25;;;;;;;11.90;7.90;;;;;;;28.44;47.56;99676.78;108092;1254;59486;-70
2023/08/04 01:22:53;;;;;;;7.50;6.60;;;;;;;28.51;47.43;99671.09;108065;1253;73063;-69
2023/08/04 01:25:27;;;;;;;10.10;6.70;;;;;;;28.22;47.93;99670.75;108041;1254;70301;-69
2023/08/04 01:28:00;;;;;;;9.00;6.80;;;;;;;28.33;47.56;99671.85;108088;1254;72666;-69
2023/08/04 01:30:28;;;;;;;8.40;6.40;;;;;;;28.56;47.16;99673.42;107937;1254;61660;-70
2023/08/04 01:32:57;;;;;;;12.70;6.50;;;;;;;28.74;46.63;99676.89;107861;1253;59310;-69
2023/08/04 01:35:25;;;;;;;9.80;6.20;;;;;;;28.86;46.40;99680.78;107918;1254;71855;-69
2023/08/04 01:37:52;;;;;;;10.90;6.50;;;;;;;28.87;46.37;99684.64;108132;1253;69199;-69
2023/08/04 01:40:20;;;;;;;9.40;6.80;;;;;;;29.09;45.87;99684.02;108110;1254;71090;-68
2023/08/04 01:42:47;;;;;;;10.00;6.60;;;;;;;28.93;46.23;99679.02;108049;1254;61695;-70
2023/08/04 01:45:15;;;;;;;8.30;6.30;;;;;;;28.89;46.46;99673.11;108079;1253;60015;-70
2023/08/04 01:47:44;;;;;;;9.10;6.40;;;;;;;29.04;45.90;99676.84;108047;1259;71874;-69
2023/08/04 01:50:11;;;;;;;8.10;5.80;;;;;;;29.05;45.77;99680.48;108229;1253;70303;-69
2023/08/04 01:52:38;;;;;;;8.10;6.40;;;;;;;28.78;46.18;99683.92;107960;1253;73121;-70
2023/08/04 01:55:06;;;;;;;12.60;7.20;;;;;;;28.74;46.22;99686.52;108038;1256;60478;-69
2023/08/04 01:57:34;;;;;;;7.30;6.30;;;;;;;29.05;45.78;99681.71;107870;1253;60296;-70
2023/08/04 02:00:02;;;;;;;12.60;6.60;;;;;;;28.85;46.14;99684.36;108185;1258;73054;-70
2023/08/04 02:02:37;;;;;;;9.20;6.70;;;;;;;28.75;46.30;99677.82;107932;1253;70518;-70
2023/08/04 02:05:06;;;;;;;9.60;6.80;;;;;;;28.87;45.93;99674.09;107991;1253;72761;-70
2023/08/04 02:07:33;;;;;;;10.60;6.70;;;;;;;29.02;45.89;99678.85;108154;1253;60746;-69
2023/08/04 02:10:02;;;;;;;9.80;6.80;;;;;;;29.20;45.54;99677.58;107991;1253;60211;-70
2023/08/04 02:12:29;;;;;;;10.20;6.90;;;;;;;29.03;45.73;99678.91;107952;1253;72980;-69
2023/08/04 02:14:57;;;;;;;11.50;6.80;;;;;;;28.90;46.06;99679.05;107886;1260;69418;-69
2023/08/04 02:17:24;;;;;;;9.30;6.50;;;;;;;28.89;46.09;99677.20;108041;1253;72124;-70
2023/08/04 02:19:52;;;;;;;9.30;6.80;;;;;;;28.92;46.19;99674.67;107971;1253;59997;-68
2023/08/04 02:22:19;;;;;;;7.40;5.70;;;;;;;28.81;46.11;99670.70;108064;1254;60002;-70
2023/08/04 02:24:47;;;;;;;8.10;6.00;;;;;;;28.68;46.22;99674.44;107943;1252;73858;-67
2023/08/04 02:27:14;;;;;;;8.80;6.10;;;;;;;28.59;46.60;99678.97;108078;1253;68721;-70
2023/08/04 02:29:42;;;;;;;8.60;6.00;;;;;;;28.77;46.32;99679.56;108032;1254;72495;-69
2023/08/04 02:32:11;;;;;;;8.80;6.10;;;;;;;28.82;46.14;99685.68;108097;1253;60940;-71
2023/08/04 02:34:38;;;;;;;10.50;6.10;;;;;;;29.06;45.49;99689.26;107989;1253;60130;-68
2023/08/04 02:37:05;;;;;;;7.00;5.70;;;;;;;29.01;45.58;99690.48;108109;1252;73029;-70
2023/08/04 02:39:34;;;;;;;7.10;5.50;;;;;;;29.00;45.60;99688.55;108105;1253;70006;-71
2023/08/04 02:42:02;;;;;;;6.60;5.60;;;;;;;29.21;45.13;99691.60;108087;1254;71641;-69
2023/08/04 02:44:29;;;;;;;8.70;6.20;;;;;;;29.13;45.32;99691.48;108065;1259;61719;-68
2023/08/04 02:46:58;;;;;;;9.90;5.90;;;;;;;29.33;44.97;99694.42;108110;1257;59675;-67
2023/08/04 02:49:25;;;;;;;7.10;5.90;;;;;;;29.52;44.56;99694.08;108058;1253;73068;-69
2023/08/04 02:51:52;;;;;;;8.30;5.70;;;;;;;29.52;44.44;99702.08;108261;1253;70014;-69
2023/08/04 02:54:20;;;;;;;7.40;5.80;;;;;;;29.14;45.10;99700.02;108081;1254;72652;-69
2023/08/04 02:56:47;;;;;;;8.30;6.10;;;;;;;29.28;44.74;99702.49;107815;1260;62189;-70
2023/08/04 02:59:14;;;;;;;7.90;5.80;;;;;;;29.24;44.80;99700.45;108092;1253;60069;-70
2023/08/04 03:01:42;;;;;;;9.10;6.10;;;;;;;29.07;45.14;99706.48;108042;1253;73145;-70
2023/08/04 03:04:12;;;;;;;10.70;5.70;;;;;;;28.76;45.57;99711.06;108011;1253;70509;-70
2023/08/04 03:06:40;;;;;;;8.70;6.00;;;;;;;28.69;46.01;99708.30;108093;1252;75717;-70
2023/08/04 03:09:07;;;;;;;10.60;5.80;;;;;;;28.89;45.67;99709.48;108091;1258;61628;-71
2023/08/04 03:11:34;;;;;;;8.30;5.80;;;;;;;29.16;45.10;99705.58;108168;1253;60084;-70
2023/08/04 03:14:02;;;;;;;7.00;5.60;;;;;;;29.35;44.69;99711.05;108092;1253;71947;-69
2023/08/04 03:16:29;;;;;;;8.40;5.90;;;;;;;29.25;44.86;99714.09;108059;1253;68718;-70
2023/08/04 03:18:57;;;;;;;8.00;5.90;;;;;;;29.42;44.58;99712.49;107992;1253;72063;-68
2023/08/04 03:21:24;;;;;;;10.60;5.90;;;;;;;29.50;44.41;99713.34;107993;1253;61642;-69
2023/08/04 03:23:52;;;;;;;7.60;5.50;;;;;;;29.66;43.94;99709.54;108052;1252;60324;-69
2023/08/04 03:26:19;;;;;;;8.00;5.90;;;;;;;29.70;43.70;99712.14;108032;1253;73062;-69
2023/08/04 03:28:46;;;;;;;7.80;5.70;;;;;;;29.65;43.92;99713.66;108016;1258;69129;-69
2023/08/04 03:31:14;;;;;;;7.90;5.40;;;;;;;29.61;44.00;99713.26;108009;1256;72795;-69
2023/08/04 03:33:41;;;;;;;9.50;5.90;;;;;;;29.81;43.68;99715.31;107970;1254;61738;-69
2023/08/04 03:36:09;;;;;;;9.20;5.20;;;;;;;30.36;42.83;99718.39;108049;1253;60318;-70
2023/08/04 03:38:36;;;;;;;11.10;5.50;;;;;;;30.78;41.84;99713.73;107978;1254;72196;-69
2023/08/04 03:41:04;;;;;;;10.00;5.50;;;;;;;31.21;41.11;99710.66;108034;1254;70590;-71
2023/08/04 03:43:31;;;;;;;8.80;5.30;;;;;;;31.67;40.36;99712.77;108054;1255;73007;-67
2023/08/04 03:45:59;;;;;;;10.30;4.80;;;;;;;32.13;39.19;99710.81;108107;1255;60450;-69
2023/08/04 03:48:26;;;;;;;7.90;5.10;;;;;;;32.28;38.69;99710.80;107869;1254;59129;-69
2023/08/04 03:50:53;;;;;;;5.70;4.30;;;;;;;32.53;38.28;99713.59;108167;1253;76358;-69
2023/08/04 03:53:21;;;;;;;5.50;4.30;;;;;;;32.21;38.41;99713.21;107991;1253;70342;-69
2023/08/04 03:55:48;;;;;;;6.50;4.80;;;;;;;32.16;38.61;99715.89;108011;1253;71433;-70
2023/08/04 03:58:16;;;;;;;7.10;4.80;;;;;;;31.94;38.98;99711.05;107812;1254;60771;-69
2023/08/04 04:00:43;;;;;;;7.00;5.20;;;;;;;31.72;39.52;99709.98;108093;1255;60554;-70
2023/08/04 04:03:10;;;;;;;6.60;5.00;;;;;;;31.77;39.59;99714.77;108060;1253;73875;-69
2023/08/04 04:05:38;;;;;;;8.70;4.80;;;;;;;31.58;39.97;99718.64;108034;1253;71460;-69
2023/08/04 04:08:06;;;;;;;7.50;4.90;;;;;;;31.70;39.86;99720.41;108096;1253;71401;-69
2023/08/04 04:10:33;;;;;;;8.90;4.70;;;;;;;31.97;39.49;99722.67;108036;1253;61776;-70
2023/08/04 04:13:01;;;;;;;9.00;4.90;;;;;;;32.45;38.65;99721.54;108031;1253;60413;-70
2023/08/04 04:15:28;;;;;;;7.10;4.90;;;;;;;32.91;38.33;99720.89;107727;1261;73775;-70
2023/08/04 04:17:56;;;;;;;6.70;4.50;;;;;;;33.06;37.87;99723.80;107965;1253;60325;-70
2023/08/04 04:20:23;;;;;;;10.00;5.30;;;;;;;33.20;37.55;99728.16;107850;1253;63811;-70
2023/08/04 04:22:53;;;;;;;6.20;4.50;;;;;;;33.49;37.23;99725.45;108000;1255;62115;-70
2023/08/04 04:25:20;;;;;;;8.40;4.50;;;;;;;33.84;36.54;99727.04;108066;1252;60298;-69
2023/08/04 04:27:48;;;;;;;7.80;5.00;;;;;;;34.25;36.08;99730.77;108091;1256;63792;-71
2023/08/04 04:30:15;;;;;;;7.80;4.50;;;;;;;34.40;35.74;99731.87;108090;1255;60281;-72
2023/08/04 04:32:42;;;;;;;9.50;5.20;;;;;;;34.41;35.58;99729.04;108058;1253;63777;-70
2023/08/04 04:35:10;;;;;;;14.50;4.80;;;;;;;34.54;35.19;99727.82;108121;1253;60323;-71
2023/08/04 04:37:37;;;;;;;7.50;4.90;;;;;;;34.90;34.93;99727.50;108173;1253;60202;-70
2023/08/04 04:40:06;;;;;;;8.10;4.70;;;;;;;35.37;34.39;99729.58;108102;1253;65452;-71
2023/08/04 04:42:33;;;;;;;4.90;4.10;;;;;;;35.66;33.75;99722.59;108149;1253;72608;-70
2023/08/04 04:45:01;;;;;;;5.60;4.40;;;;;;;35.86;33.23;99716.05;108153;1254;63737;-71
2023/08/04 04:47:28;;;;;;;8.20;4.30;;;;;;;35.92;33.06;99718.69;108106;1252;60397;-70
2023/08/04 04:49:56;;;;;;;8.70;4.80;;;;;;;35.84;32.84;99717.21;108308;1252;59673;-69
2023/08/04 04:52:34;;;;;;;7.30;4.30;;;;;;;35.64;32.98;99718.36;108173;1254;65035;-72
2023/08/04 04:55:03;;;;;;;7.90;4.30;;;;;;;35.75;32.92;99715.82;108282;1252;60383;-71
2023/08/04 04:57:31;;;;;;;7.30;4.20;;;;;;;35.78;33.03;99717.55;108228;1253;63797;-71
2023/08/04 04:59:58;;;;;;;9.10;4.70;;;;;;;35.74;33.01;99718.58;108104;1253;60430;-71
2023/08/04 05:02:26;;;;;;;8.00;4.40;;;;;;;35.88;32.89;99718.20;108143;1253;60196;-72
2023/08/04 05:04:53;;;;;;;11.90;4.50;;;;;;;36.05;32.88;99721.17;108120;1253;65331;-71
2023/08/04 05:07:20;;;;;;;8.60;4.90;;;;;;;36.10;32.81;99728.73;108159;1253;61299;-71
2023/08/04 05:09:48;;;;;;;5.70;4.60;;;;;;;36.42;32.43;99726.92;108098;1254;62710;-72
2023/08/04 05:12:15;;;;;;;9.00;4.40;;;;;;;36.84;31.89;99722.95;108152;1253;60273;-70
2023/08/04 05:14:42;;;;;;;8.60;4.70;;;;;;;37.06;31.37;99723.58;108061;1252;60345;-70
2023/08/04 05:17:12;;;;;;;9.90;4.20;;;;;;;37.40;31.00;99728.17;108069;1253;67174;-71
2023/08/04 05:19:39;;;;;;;9.00;4.30;;;;;;;37.58;30.69;99724.35;108068;1257;61340;-71
2023/08/04 05:22:07;;;;;;;9.60;4.70;;;;;;;37.93;29.96;99730.16;108128;1253;63937;-70
2023/08/04 05:24:34;;;;;;;9.20;4.80;;;;;;;37.98;29.88;99733.39;108191;1252;60516;-71
2023/08/04 05:27:04;;;;;;;6.90;4.30;;;;;;;38.17;29.88;99732.54;108166;1252;60544;-70
2023/08/04 05:29:31;;;;;;;8.60;4.50;;;;;;;38.10;29.85;99736.77;108156;1253;65504;-70
2023/08/04 05:32:00;;;;;;;6.60;4.50;;;;;;;38.29;29.61;99742.55;108186;1253;61314;-70
2023/08/04 05:34:28;;;;;;;8.10;4.50;;;;;;;38.27;29.42;99746.80;108132;1253;63741;-71
2023/08/04 05:36:55;;;;;;;7.70;4.50;;;;;;;38.15;29.42;99749.73;108130;1252;58987;-69
2023/08/04 05:39:22;;;;;;;7.70;4.50;;;;;;;38.23;29.43;99743.87;108167;1252;59064;-70
2023/08/04 05:41:50;;;;;;;9.60;4.50;;;;;;;38.42;29.22;99748.79;108217;1253;64954;-70
2023/08/04 05:44:17;;;;;;;12.20;4.60;;;;;;;38.70;28.91;99751.79;108103;1253;61593;-68
2023/08/04 05:46:44;;;;;;;10.70;4.30;;;;;;;38.99;28.27;99754.02;108102;1253;63743;-69
2023/08/04 05:49:12;;;;;;;12.30;4.60;;;;;;;39.10;28.26;99753.30;108219;1254;60604;-70
2023/08/04 05:51:39;;;;;;;7.50;4.60;;;;;;;39.36;27.92;99750.95;108185;1253;59125;-69
2023/08/04 05:54:07;;;;;;;8.60;4.30;;;;;;;39.73;27.61;99753.62;108284;1253;65094;-70
2023/08/04 05:56:35;;;;;;;9.30;4.20;;;;;;;40.00;27.36;99753.16;108188;1252;70307;-70
2023/08/04 05:59:02;;;;;;;10.20;4.30;;;;;;;39.95;27.42;99749.81;108194;1252;63966;-71
2023/08/04 06:01:30;;;;;;;12.20;4.20;;;;;;;40.10;27.09;99746.42;108126;1253;60319;-70
2023/08/04 06:03:57;;;;;;;8.50;4.30;;;;;;;40.25;27.06;99747.14;108100;1252;60255;-71
2023/08/04 06:06:25;;;;;;;8.60;4.60;;;;;;;40.47;26.66;99748.94;108124;1257;65038;-71
2023/08/04 06:08:53;;;;;;;10.30;4.40;;;;;;;40.53;26.34;99745.56;108205;1253;60518;-71
2023/08/04 06:11:21;;;;;;;9.00;4.60;;;;;;;40.55;26.41;99743.71;108132;1254;62520;-71
2023/08/04 06:13:48;;;;;;;9.90;4.40;;;;;;;40.65;26.39;99740.31;108119;1252;60339;-71
2023/08/04 06:16:16;;;;;;;9.60;4.30;;;;;;;40.90;26.18;99739.84;108157;1253;61300;-71
2023/08/04 06:18:43;;;;;;;10.60;4.60;;;;;;;41.27;25.60;99737.79;108144;1252;63642;-71
2023/08/04 06:21:11;;;;;;;7.60;4.70;;;;;;;41.44;25.37;99739.09;108220;1253;61472;-70
2023/08/04 06:23:45;;;;;;;8.30;4.40;;;;;;;41.49;25.27;99740.39;108076;1253;70819;-70
2023/08/04 06:26:13;;;;;;;9.40;4.40;;;;;;;41.86;24.95;99736.70;108148;1252;60422;-72
2023/08/04 06:28:40;;;;;;;7.80;4.10;;;;;;;42.13;24.59;99738.04;108235;1252;60460;-74
2023/08/04 06:31:08;;;;;;;10.30;4.30;;;;;;;41.98;24.75;99741.61;108065;1253;64947;-71
2023/08/04 06:33:35;;;;;;;11.10;4.30;;;;;;;42.14;24.80;99745.19;108103;1257;69305;-71
2023/08/04 06:36:03;;;;;;;9.50;4.60;;;;;;;42.56;24.57;99746.42;108069;1252;63746;-70
2023/08/04 06:38:30;;;;;;;11.70;4.50;;;;;;;42.81;24.12;99747.92;108113;1259;60155;-72
2023/08/04 06:40:59;;;;;;;14.50;4.50;;;;;;;42.83;23.98;99749.19;108080;1252;60553;-72
2023/08/04 06:43:26;;;;;;;11.80;4.70;;;;;;;42.90;23.90;99756.95;108093;1258;64947;-72
2023/08/04 06:45:53;;;;;;;7.70;4.10;;;;;;;42.92;23.95;99762.27;108077;1252;61524;-72
2023/08/04 06:48:24;;;;;;;15.50;4.60;;;;;;;43.24;23.89;99766.34;108106;1252;63826;-72
2023/08/04 06:50:51;;;;;;;7.40;4.20;;;;;;;43.57;23.56;99773.17;108104;1253;60290;-72
2023/08/04 06:53:19;;;;;;;11.30;4.60;;;;;;;43.72;23.49;99780.27;108171;1252;60318;-72
2023/08/04 06:55:46;;;;;;;12.60;4.10;;;;;;;43.71;22.98;99783.70;108173;1252;65010;-71
2023/08/04 06:58:13;;;;;;;10.40;4.20;;;;;;;43.61;23.27;99782.52;108192;1253;60527;-72
2023/08/04 07:00:41;;;;;;;12.70;5.00;;;;;;;43.74;23.38;99781.83;108157;1254;63683;-72
2023/08/04 07:03:11;;;;;;;8.40;4.40;;;;;;;43.67;23.39;99783.38;108199;1252;61145;-72
2023/08/04 07:05:38;;;;;;;8.10;4.10;;;;;;;43.70;23.25;99783.86;108119;1252;60386;-71
2023/08/04 07:08:06;;;;;;;5.90;3.90;;;;;;;43.62;23.44;99786.84;108125;1255;63764;-74
2023/08/04 07:10:35;;;;;;;6.20;3.90;;;;;;;43.44;23.69;99792.94;108139;1253;61490;-72
2023/08/04 07:13:02;;;;;;;8.10;3.60;;;;;;;43.54;23.43;99790.08;108052;1252;63944;-71
2023/08/04 07:15:31;;;;;;;7.80;4.60;;;;;;;43.71;23.27;99791.35;108187;1252;59555;-72
2023/08/04 07:17:58;;;;;;;9.60;4.00;;;;;;;43.99;22.89;99789.17;108169;1252;59154;-71
2023/08/04 07:20:27;;;;;;;11.20;4.10;;;;;;;44.05;22.79;99794.27;108244;1252;64438;-72
2023/08/04 07:22:55;;;;;;;7.00;3.30;;;;;;;44.02;22.58;99794.58;108059;1252;61661;-69
2023/08/04 07:25:23;;;;;;;9.10;3.70;;;;;;;44.01;22.50;99791.27;108245;1254;62921;-72
2023/08/04 07:27:50;;;;;;;6.70;3.80;;;;;;;43.87;22.39;99792.22;108024;1253;59209;-72
2023/08/04 07:30:18;;;;;;;8.40;4.00;;;;;;;44.21;22.23;99796.19;107953;1258;60534;-72
2023/08/04 07:32:46;;;;;;;6.60;3.60;;;;;;;44.64;21.82;99792.83;108054;1253;64263;-74
2023/08/04 07:35:13;;;;;;;11.50;3.90;;;;;;;44.70;21.67;99791.05;107996;1253;60336;-71
2023/08/04 07:37:40;;;;;;;7.20;4.10;;;;;;;44.63;21.84;99796.29;108120;1253;63710;-72
2023/08/04 07:40:09;;;;;;;7.20;3.70;;;;;;;44.73;22.00;99795.03;107992;1253;60836;-71
2023/08/04 07:42:36;;;;;;;8.60;4.20;;;;;;;44.98;21.82;99792.75;108076;1253;60329;-70
2023/08/04 07:45:04;;;;;;;8.10;4.30;;;;;;;45.44;21.53;99787.60;107874;1253;64948;-72
2023/08/04 07:47:32;;;;;;;9.40;3.70;;;;;;;46.00;21.09;99785.01;108048;1253;61148;-71
2023/08/04 07:49:59;;;;;;;15.20;3.90;;;;;;;46.13;20.30;99783.37;107993;1256;62581;-71
2023/08/04 07:52:26;;;;;;;8.20;3.70;;;;;;;46.15;19.90;99787.47;108077;1255;60407;-72
2023/08/04 07:54:54;;;;;;;9.60;3.80;;;;;;;46.00;20.01;99789.79;107997;1253;60413;-71
2023/08/04 07:57:21;;;;;;;10.30;4.00;;;;;;;45.85;20.24;99788.76;107991;1253;65221;-71
2023/08/04 07:59:50;;;;;;;7.40;3.50;;;;;;;45.55;20.62;99791.52;108055;1253;68155;-73
2023/08/04 08:02:17;;;;;;;8.70;3.60;;;;;;;45.62;20.56;99791.85;108044;1253;63815;-72
2023/08/04 08:04:45;;;;;;;5.70;3.20;;;;;;;45.38;19.93;99794.29;107948;1253;60457;-71
2023/08/04 08:07:12;;;;;;;7.90;3.50;;;;;;;45.31;19.33;99794.92;108091;1253;60605;-72
2023/08/04 08:09:40;;;;;;;12.30;3.60;;;;;;;45.36;19.90;99797.64;108061;1253;64978;-71
2023/08/04 08:12:07;;;;;;;8.20;3.80;;;;;;;45.44;19.83;99802.05;108039;1253;61364;-72
2023/08/04 08:14:35;;;;;;;7.70;3.10;;;;;;;45.24;19.51;99800.94;107997;1255;63698;-70
2023/08/04 08:17:02;;;;;;;6.80;3.80;;;;;;;45.61;19.51;99804.30;108024;1253;60026;-72
2023/08/04 08:19:30;;;;;;;9.30;3.50;;;;;;;46.03;19.59;99804.99;108038;1253;60451;-72
2023/08/04 08:21:58;;;;;;;7.50;3.30;;;;;;;46.12;19.84;99805.64;108084;1252;65299;-72
2023/08/04 08:24:25;;;;;;;10.80;3.80;;;;;;;45.90;19.75;99807.84;108125;1252;60334;-71
2023/08/04 08:26:52;;;;;;;7.60;3.10;;;;;;;45.69;19.94;99809.90;107955;1254;62525;-72
2023/08/04 08:29:20;;;;;;;4.00;3.40;;;;;;;45.83;20.04;99806.75;108087;1253;60195;-72
2023/08/04 08:31:48;;;;;;;10.80;3.90;;;;;;;45.78;19.99;99805.71;108014;1252;60348;-72
2023/08/04 08:34:16;;;;;;;7.70;3.30;;;;;;;45.82;20.28;99812.27;108036;1252;64886;-71
2023/08/04 08:36:44;;;;;;;4.20;2.90;;;;;;;46.08;19.77;99813.73;108124;1252;61376;-72
2023/08/04 08:39:11;;;;;;;7.10;2.70;;;;;;;46.03;19.20;99813.22;108036;1254;63760;-71
2023/08/04 08:41:38;;;;;;;6.20;3.10;;;;;;;45.82;19.11;99810.98;108016;1253;59259;-73
2023/08/04 08:44:06;;;;;;;5.60;3.30;;;;;;;45.99;19.07;99809.54;107986;1253;60288;-71
2023/08/04 08:46:33;;;;;;;3.70;3.00;;;;;;;45.90;19.53;99815.96;108022;1252;65022;-73
2023/08/04 08:49:01;;;;;;;5.50;3.10;;;;;;;46.02;19.38;99810.46;108027;1253;61462;-72
2023/08/04 08:51:28;;;;;;;11.80;3.70;;;;;;;46.50;19.46;99811.14;108151;1258;63735;-71
2023/08/04 08:53:56;;;;;;;6.40;3.10;;;;;;;46.80;18.99;99814.11;107951;1253;60492;-72
2023/08/04 08:56:25;;;;;;;4.50;2.90;;;;;;;46.70;18.57;99815.50;108022;1253;59918;-73
2023/08/04 08:58:52;;;;;;;3.60;2.80;;;;;;;46.42;18.71;99818.00;108058;1251;64062;-71
2023/08/04 09:01:20;;;;;;;5.20;3.20;;;;;;;46.19;19.23;99820.41;108114;1253;60525;-72
2023/08/04 09:03:47;;;;;;;5.70;3.30;;;;;;;45.94;19.41;99816.35;107967;1253;63799;-72
2023/08/04 09:06:14;;;;;;;4.10;2.70;;;;;;;45.74;19.28;99815.89;108042;1255;60330;-72
2023/08/04 09:08:42;;;;;;;5.40;2.60;;;;;;;45.90;19.13;99820.41;107933;1260;59662;-72
2023/08/04 09:11:09;;;;;;;3.70;2.50;;;;;;;45.77;18.69;99823.06;108014;1253;63706;-72
2023/08/04 09:13:40;;;;;;;6.30;3.00;;;;;;;45.37;18.99;99821.27;107955;1253;61346;-72
2023/08/04 09:16:11;;;;;;;5.80;2.60;;;;;;;45.12;19.03;99823.08;107991;1253;63918;-73
2023/08/04 09:18:39;;;;;;;3.90;2.50;;;;;;;45.28;18.77;99820.41;108045;1253;60438;-72
2023/08/04 09:21:07;;;;;;;6.30;2.80;;;;;;;45.33;19.37;99821.98;108046;1253;60513;-72
2023/08/04 09:23:35;;;;;;;8.90;2.70;;;;;;;45.22;19.39;99826.37;108034;1258;65033;-72
2023/08/04 09:26:03;;;;;;;3.00;2.20;;;;;;;45.15;19.44;99829.66;108135;1253;61398;-72
2023/08/04 09:28:30;;;;;;;3.20;2.70;;;;;;;45.03;19.65;99827.50;108008;1258;63852;-70
2023/08/04 09:31:08;;;;;;;4.10;2.60;;;;;;;45.06;19.40;99825.47;108018;1253;60314;-71
2023/08/04 09:33:41;;;;;;;5.60;2.80;;;;;;;45.05;19.37;99825.20;107927;1253;60277;-72
2023/08/04 09:36:11;;;;;;;7.10;2.30;;;;;;;44.91;18.94;99825.82;108139;1253;64410;-70
2023/08/04 09:38:41;;;;;;;3.70;2.40;;;;;;;45.04;18.85;99816.04;108033;1253;63412;-71
2023/08/04 09:41:13;;;;;;;5.00;2.70;;;;;;;45.46;18.79;99817.38;107940;1256;63283;-73
2023/08/04 09:43:44;;;;;;;3.50;2.80;;;;;;;45.73;19.38;99817.90;107939;1253;60273;-71
2023/08/04 09:46:11;;;;;;;5.40;2.60;;;;;;;45.35;19.71;99823.39;107998;1253;60439;-72
2023/08/04 09:48:39;;;;;;;10.70;2.80;;;;;;;45.00;19.69;99823.41;108025;1253;64958;-72
2023/08/04 09:51:14;;;;;;;3.60;2.70;;;;;;;44.96;19.98;99829.39;108068;1253;60438;-72
2023/08/04 09:53:49;;;;;;;4.20;2.60;;;;;;;44.95;20.00;99826.63;108126;1253;63837;-72
2023/08/04 09:56:21;;;;;;;6.10;3.00;;;;;;;45.08;20.12;99827.16;107956;1252;60430;-71
2023/08/04 09:58:48;;;;;;;4.00;2.50;;;;;;;44.95;19.56;99826.23;108073;1252;60438;-72
2023/08/04 10:01:16;;;;;;;3.80;2.60;;;;;;;44.96;19.42;99824.30;108033;1253;64843;-71
2023/08/04 10:03:51;;;;;;;3.90;2.70;;;;;;;45.70;19.01;99825.93;107976;1253;61261;-71
2023/08/04 10:06:18;;;;;;;3.40;2.80;;;;;;;45.87;19.27;99827.52;108141;1253;63731;-72
2023/08/04 10:08:47;;;;;;;5.70;2.90;;;;;;;45.64;19.37;99824.36;107914;1252;60435;-71
2023/08/04 10:11:15;;;;;;;5.50;2.60;;;;;;;45.46;19.45;99824.33;108132;1253;61204;-72
2023/08/04 10:13:44;;;;;;;4.30;2.30;;;;;;;45.51;18.45;99827.61;108136;1253;64916;-71
2023/08/04 10:16:15;;;;;;;5.20;2.20;;;;;;;45.46;18.20;99825.89;108114;1257;61396;-73
2023/08/04 10:18:55;;;;;;;5.00;2.10;;;;;;;45.39;18.20;99829.66;107923;1257;62855;-70
2023/08/04 10:21:27;;;;;;;3.60;2.20;;;;;;;45.53;17.99;99828.36;108095;1253;60424;-70
2023/08/04 10:23:57;;;;;;;2.60;2.00;;;;;;;45.25;17.94;99833.52;108164;1252;60313;-71
2023/08/04 10:26:24;;;;;;;4.50;2.50;;;;;;;45.29;18.37;99835.75;108200;1252;64986;-71
2023/08/04 10:29:08;;;;;;;4.40;2.50;;;;;;;45.40;18.48;99839.69;108050;1252;61411;-70
2023/08/04 10:31:52;;;;;;;8.20;2.50;;;;;;;45.06;18.52;99844.59;108127;1253;63820;-72
2023/08/04 10:34:28;;;;;;;4.40;2.30;;;;;;;45.02;18.55;99834.45;108220;1257;60439;-71
2023/08/04 10:37:04;;;;;;;7.00;2.30;;;;;;;45.50;18.47;99832.17;108155;1253;59247;-71
2023/08/04 10:39:38;;;;;;;5.30;2.70;;;;;;;45.83;18.10;99829.58;108128;1254;63636;-71
2023/08/04 10:42:09;;;;;;;4.80;2.30;;;;;;;45.82;17.83;99834.36;108116;1253;61442;-73
2023/08/04 10:44:47;;;;;;;5.30;2.50;;;;;;;45.99;17.86;99835.21;108150;1253;64013;-71
2023/08/04 10:47:15;;;;;;;4.30;2.40;;;;;;;45.93;17.63;99832.68;108276;1252;60399;-71
2023/08/04 10:49:43;;;;;;;8.50;2.80;;;;;;;45.84;18.05;99835.67;108104;1254;60587;-71
2023/08/04 10:52:11;;;;;;;5.20;2.20;;;;;;;45.63;18.17;99833.20;108153;1254;64884;-72
2023/08/04 10:54:38;;;;;;;4.70;2.30;;;;;;;45.23;18.50;99833.97;108105;1254;61363;-71
2023/08/04 10:57:06;;;;;;;3.50;2.60;;;;;;;45.08;18.53;99839.80;107918;1254;62597;-72
2023/08/04 10:59:33;;;;;;;5.90;2.70;;;;;;;45.46;18.52;99839.02;108243;1254;60283;-72
2023/08/04 11:02:00;;;;;;;4.60;2.40;;;;;;;45.92;18.29;99840.86;108143;1256;59176;-73
2023/08/04 11:04:28;;;;;;;3.70;2.20;;;;;;;46.00;17.83;99845.39;108259;1252;64963;-72
2023/08/04 11:06:57;;;;;;;3.70;2.20;;;;;;;45.84;17.89;99847.13;108290;1254;61355;-72
2023/08/04 11:09:26;;;;;;;4.30;2.10;;;;;;;45.84;17.84;99842.73;108186;1254;63825;-73
2023/08/04 11:11:54;;;;;;;3.80;2.00;;;;;;;45.81;18.07;99840.48;108184;1253;60403;-71
2023/08/04 11:14:21;;;;;;;5.00;2.30;;;;;;;44.81;17.72;99849.23;108189;1253;59135;-72
2023/08/04 11:16:49;;;;;;;2.80;2.10;;;;;;;44.51;18.02;99847.48;108080;1258;64977;-71
2023/08/04 11:19:20;;;;;;;4.10;2.10;;;;;;;44.72;17.79;99846.27;108180;1253;61241;-71
2023/08/04 11:21:48;;;;;;;4.60;2.40;;;;;;;45.06;17.88;99845.35;108164;1252;63910;-74
2023/08/04 11:24:26;;;;;;;4.00;2.00;;;;;;;45.28;17.72;99836.94;107947;1251;249769;-73
2023/08/04 11:29:25;;;;;;;3.50;2.30;;;;;;;43.27;19.79;99848.41;104865;1292;603807;-71
2023/08/04 11:31:53;;;;;;;2.90;2.10;;;;;;;45.12;18.27;99839.84;107468;1264;58899;-73